Time;durP1;ratioP1;P1;durP2;ratioP2;P2;SDS_P1;SDS_P2;PMS_P1;PMS_P2;Temp;Humidity;BMP_temperature;BMP_pressure;BME280_temperature;BME280_humidity;BME280_pressure;Samples;Min_cycle;Max_cycle;Signal;HPM_P1;HPM_P2
2024/02/10 00:00:19;;;;;;;11.60;10.70;;;10.90;99.90;;;;;;5001502;28;20533;-78
2024/02/10 00:02:51;;;;;;;14.47;10.90;;;10.90;99.90;;;;;;5005119;28;20461;-79
2024/02/10 00:05:21;;;;;;;12.27;11.20;;;10.90;99.90;;;;;;5004316;28;20458;-80
2024/02/10 00:07:55;;;;;;;12.70;11.40;;;10.80;99.90;;;;;;5003312;28;21083;-80
2024/02/10 00:10:27;;;;;;;12.43;11.13;;;10.90;99.90;;;;;;5005194;28;20806;-78
2024/02/10 00:12:57;;;;;;;12.40;11.40;;;10.90;99.90;;;;;;5002719;28;20454;-80
2024/02/10 00:15:26;;;;;;;12.00;11.00;;;10.90;99.90;;;;;;5001336;28;20848;-78
2024/02/10 00:17:54;;;;;;;12.37;11.47;;;10.90;99.90;;;;;;5000951;28;20468;-77
2024/02/10 00:20:25;;;;;;;11.73;10.83;;;10.80;99.90;;;;;;5003127;28;20833;-80
2024/02/10 00:22:54;;;;;;;12.93;11.60;;;10.90;99.90;;;;;;4998888;28;20524;-77
2024/02/10 00:25:23;;;;;;;12.17;11.17;;;10.90;99.90;;;;;;5005329;28;20804;-77
2024/02/10 00:27:54;;;;;;;11.30;10.40;;;10.90;99.90;;;;;;5001555;28;20461;-80
2024/02/10 00:30:23;;;;;;;12.50;11.40;;;10.90;99.90;;;;;;5003335;28;20462;-77
2024/02/10 00:32:52;;;;;;;11.37;10.50;;;10.90;99.90;;;;;;5003441;28;20502;-80
2024/02/10 00:35:22;;;;;;;11.97;10.93;;;10.90;99.90;;;;;;4984242;28;20573;-76
2024/02/10 00:37:51;;;;;;;11.93;11.00;;;10.80;99.90;;;;;;4999363;28;20462;-79
2024/02/10 00:40:19;;;;;;;11.43;10.63;;;10.90;99.90;;;;;;4985894;28;20462;-80
2024/02/10 00:42:48;;;;;;;11.63;10.90;;;10.80;99.90;;;;;;5006333;28;20460;-77
2024/02/10 00:45:17;;;;;;;10.50;9.77;;;10.90;99.90;;;;;;5005754;28;20450;-77
2024/02/10 00:47:46;;;;;;;10.93;10.03;;;10.90;99.90;;;;;;4999850;28;20569;-77
2024/02/10 00:50:16;;;;;;;10.90;10.10;;;10.90;98.90;;;;;;5004075;28;20959;-79
2024/02/10 00:52:49;;;;;;;11.30;10.47;;;10.90;99.90;;;;;;4986840;28;20466;-78
2024/02/10 00:55:27;;;;;;;10.77;9.97;;;10.90;99.90;;;;;;5005840;28;20466;-77
2024/02/10 00:58:00;;;;;;;12.47;11.27;;;10.90;99.90;;;;;;5001424;28;20448;-77
2024/02/10 01:00:30;;;;;;;12.17;11.17;;;10.90;99.90;;;;;;5004414;28;20470;-78
2024/02/10 01:02:59;;;;;;;10.43;9.63;;;10.90;99.90;;;;;;5004113;28;20512;-78
2024/02/10 01:05:27;;;;;;;12.10;11.13;;;10.90;99.90;;;;;;5002582;28;20557;-79
2024/02/10 01:07:59;;;;;;;11.90;11.00;;;10.80;99.90;;;;;;5002192;28;20529;-79
2024/02/10 01:10:30;;;;;;;11.83;10.83;;;10.80;99.90;;;;;;5000909;28;20473;-77
2024/02/10 01:13:01;;;;;;;10.37;9.53;;;10.80;99.90;;;;;;5003963;28;20451;-79
2024/02/10 01:15:32;;;;;;;11.70;10.80;;;10.80;99.90;;;;;;4997609;28;20802;-79
2024/02/10 01:18:02;;;;;;;11.17;10.03;;;10.80;99.90;;;;;;5003292;28;20442;-80
2024/02/10 01:20:31;;;;;;;10.43;9.73;;;10.80;99.90;;;;;;5001807;28;20462;-81
2024/02/10 01:22:59;;;;;;;11.00;10.30;;;10.80;99.90;;;;;;5003306;28;20450;-80
2024/02/10 01:25:30;;;;;;;9.90;9.30;;;10.90;99.90;;;;;;4999608;28;20453;-82
2024/02/10 01:28:01;;;;;;;9.80;9.00;;;10.90;99.90;;;;;;5003330;28;20578;-80
2024/02/10 01:30:31;;;;;;;9.20;8.60;;;10.90;99.90;;;;;;5005166;28;20477;-81
2024/02/10 01:32:59;;;;;;;9.57;8.97;;;10.90;99.90;;;;;;5005033;28;20451;-83
2024/02/10 01:35:27;;;;;;;10.27;9.47;;;10.80;99.90;;;;;;5009390;28;20500;-80
2024/02/10 01:37:59;;;;;;;8.70;8.07;;;10.90;99.90;;;;;;5005279;28;20451;-82
2024/02/10 01:40:27;;;;;;;7.33;6.93;;;10.90;99.90;;;;;;5008475;28;20540;-82
2024/02/10 01:42:56;;;;;;;8.17;7.67;;;10.90;99.90;;;;;;5005638;28;20460;-85
2024/02/10 01:45:24;;;;;;;7.47;7.07;;;10.90;99.90;;;;;;5006702;28;20454;-81
2024/02/10 01:47:53;;;;;;;7.67;7.27;;;10.90;99.10;;;;;;5003969;28;20933;-83
2024/02/10 01:50:22;;;;;;;7.97;7.47;;;10.90;99.90;;;;;;5003997;28;20457;-82
2024/02/10 01:52:50;;;;;;;7.33;6.90;;;10.90;8.70;;;;;;4992226;28;20986;-79
2024/02/10 01:55:19;;;;;;;6.60;6.30;;;10.90;51.90;;;;;;5007073;28;20535;-79
2024/02/10 01:57:57;;;;;;;7.57;7.17;;;10.90;1.00;;;;;;5005043;28;20474;-79
2024/02/10 02:00:26;;;;;;;6.37;6.07;;;10.90;1.00;;;;;;5004029;28;20457;-79
2024/02/10 02:02:59;;;;;;;7.03;6.63;;;10.90;99.90;;;;;;5006558;28;20450;-80
2024/02/10 02:05:28;;;;;;;6.80;6.30;;;10.90;1.00;;;;;;5010865;28;20458;-79
2024/02/10 02:07:58;;;;;;;6.77;6.47;;;10.90;1.00;;;;;;5002128;28;20581;-81
2024/02/10 02:10:26;;;;;;;6.97;6.67;;;11.00;1.00;;;;;;5006846;28;20449;-80
2024/02/10 02:12:54;;;;;;;6.40;6.20;;;10.90;99.90;;;;;;5005855;28;20462;-83
2024/02/10 02:15:23;;;;;;;6.97;6.67;;;10.80;99.90;;;;;;5002344;28;20462;-81
2024/02/10 02:17:51;;;;;;;6.20;6.00;;;10.80;45.80;;;;;;5002455;28;20496;-81
2024/02/10 02:20:22;;;;;;;6.33;6.03;;;10.90;1.00;;;;;;5009281;28;20493;-79
2024/02/10 02:22:52;;;;;;;7.00;6.70;;;10.90;30.00;;;;;;4988106;28;20842;-82
2024/02/10 02:25:22;;;;;;;7.50;7.07;;;10.90;1.00;;;;;;5004403;28;20483;-81
2024/02/10 02:27:50;;;;;;;7.27;6.97;;;10.90;1.00;;;;;;5004059;28;20520;-79
2024/02/10 02:30:18;;;;;;;7.80;7.20;;;10.90;1.00;;;;;;5005314;28;20454;-82
2024/02/10 02:32:47;;;;;;;8.13;7.67;;;10.80;1.00;;;;;;5008458;28;20452;-80
2024/02/10 02:35:16;;;;;;;6.90;6.50;;;10.80;1.00;;;;;;5006235;28;20470;-80
2024/02/10 02:37:44;;;;;;;7.37;6.97;;;10.80;1.00;;;;;;5003051;28;20485;-81
2024/02/10 02:40:16;;;;;;;7.70;7.20;;;10.70;1.00;;;;;;5007751;28;20537;-80
2024/02/10 02:42:46;;;;;;;7.47;6.97;;;10.70;1.00;;;;;;5006042;28;20446;-80
2024/02/10 02:45:14;;;;;;;6.90;6.60;;;10.70;67.30;;;;;;5010007;28;20452;-80
2024/02/10 02:47:42;;;;;;;6.43;6.23;;;10.80;1.00;;;;;;5003687;28;20501;-80
2024/02/10 02:50:14;;;;;;;7.00;6.63;;;10.80;1.00;;;;;;5010895;28;20450;-79
2024/02/10 02:52:43;;;;;;;6.77;6.47;;;10.70;99.90;;;;;;5007311;28;20549;-78
2024/02/10 02:55:12;;;;;;;6.70;6.30;;;10.70;1.00;;;;;;4987491;28;20470;-80
2024/02/10 02:57:42;;;;;;;6.93;6.60;;;10.70;1.00;;;;;;5006230;28;20486;-80
2024/02/10 03:00:12;;;;;;;6.77;6.37;;;10.70;1.00;;;;;;5002668;28;20517;-79
2024/02/10 03:02:42;;;;;;;6.80;6.50;;;10.70;1.00;;;;;;4990927;28;20528;-79
2024/02/10 03:05:11;;;;;;;7.23;6.87;;;10.60;1.00;;;;;;5005876;28;20446;-80
2024/02/10 03:07:45;;;;;;;7.03;6.53;;;10.60;1.00;;;;;;5002301;28;20475;-79
2024/02/10 03:10:14;;;;;;;7.07;6.70;;;10.70;1.00;;;;;;5002010;28;20499;-80
2024/02/10 03:12:46;;;;;;;7.03;6.53;;;10.60;1.00;;;;;;5002978;28;20451;-78
2024/02/10 03:15:14;;;;;;;7.43;7.00;;;10.70;99.90;;;;;;5004102;28;20476;-78
2024/02/10 03:17:46;;;;;;;7.63;7.03;;;10.60;99.90;;;;;;5003492;28;20482;-82
2024/02/10 03:20:23;;;;;;;7.60;7.10;;;10.60;1.00;;;;;;5004250;28;20457;-79
2024/02/10 03:23:01;;;;;;;7.57;7.07;;;10.60;99.90;;;;;;5001698;28;20493;-82
2024/02/10 03:25:30;;;;;;;7.50;7.10;;;10.60;99.90;;;;;;5001492;28;20542;-79
2024/02/10 03:28:03;;;;;;;7.70;7.30;;;10.70;99.90;;;;;;5004974;28;20538;-83
2024/02/10 03:30:31;;;;;;;8.40;7.80;;;10.70;1.00;;;;;;4985360;28;20987;-79
2024/02/10 03:33:01;;;;;;;7.07;6.63;;;10.60;99.90;;;;;;5008173;28;20470;-81
2024/02/10 03:35:31;;;;;;;8.77;8.27;;;10.70;99.90;;;;;;5004192;28;20469;-79
2024/02/10 03:37:59;;;;;;;8.10;7.60;;;10.60;1.00;;;;;;5004710;28;20807;-81
2024/02/10 03:40:29;;;;;;;9.90;9.27;;;10.60;99.90;;;;;;5004701;28;20466;-83
2024/02/10 03:42:57;;;;;;;10.03;9.23;;;10.50;1.00;;;;;;5003517;28;20450;-79
2024/02/10 03:45:33;;;;;;;10.13;9.37;;;10.60;1.00;;;;;;5005238;28;20496;-80
2024/02/10 03:48:07;;;;;;;10.47;9.63;;;10.50;1.00;;;;;;5005065;28;20834;-83
2024/02/10 03:50:35;;;;;;;11.03;10.20;;;10.60;1.00;;;;;;5000795;28;21208;-82
2024/02/10 03:53:04;;;;;;;10.37;9.57;;;10.60;1.00;;;;;;5005829;28;20553;-79
2024/02/10 03:55:32;;;;;;;11.23;10.30;;;10.60;1.00;;;;;;5002148;28;20595;-82
2024/02/10 03:58:00;;;;;;;12.40;11.30;;;10.60;1.00;;;;;;5003643;28;20473;-79
2024/02/10 04:00:31;;;;;;;11.33;10.33;;;10.60;1.00;;;;;;4984660;28;20463;-79
2024/02/10 04:02:59;;;;;;;13.13;11.83;;;10.60;1.00;;;;;;5003588;28;20590;-78
2024/02/10 04:05:33;;;;;;;12.27;11.17;;;10.60;95.60;;;;;;5007506;28;20492;-78
2024/02/10 04:08:02;;;;;;;11.93;10.90;;;10.70;99.90;;;;;;5003657;28;20474;-79
2024/02/10 04:10:31;;;;;;;10.00;9.30;;;10.60;99.90;;;;;;5009823;28;20449;-78
2024/02/10 04:12:59;;;;;;;11.47;10.60;;;10.60;1.00;;;;;;5007499;28;20541;-79
2024/02/10 04:15:30;;;;;;;10.17;9.47;;;10.60;99.90;;;;;;5009151;28;20465;-79
2024/02/10 04:17:59;;;;;;;11.57;10.50;;;10.50;99.90;;;;;;5007827;28;20478;-81
2024/02/10 04:20:28;;;;;;;10.93;10.13;;;10.50;1.00;;;;;;5000261;28;21225;-78
2024/02/10 04:22:57;;;;;;;10.90;10.10;;;10.50;1.00;;;;;;5000072;28;20454;-79
2024/02/10 04:25:30;;;;;;;11.43;10.43;;;10.40;1.00;;;;;;5000000;28;20462;-81
2024/02/10 04:28:02;;;;;;;10.30;9.50;;;10.40;1.00;;;;;;4996408;28;21025;-80
2024/02/10 04:30:33;;;;;;;11.93;10.90;;;10.40;1.00;;;;;;4998906;28;20470;-78
2024/02/10 04:33:01;;;;;;;10.33;9.50;;;10.50;1.00;;;;;;4999718;28;20466;-80
2024/02/10 04:35:30;;;;;;;10.83;10.10;;;10.40;1.00;;;;;;4997459;28;20464;-80
2024/02/10 04:38:01;;;;;;;11.77;10.77;;;10.40;1.00;;;;;;4998693;28;20481;-78
2024/02/10 04:40:30;;;;;;;11.60;10.80;;;10.40;1.00;;;;;;5004628;28;20486;-78
2024/02/10 04:42:58;;;;;;;11.30;10.43;;;10.40;1.00;;;;;;4985491;28;22343;-79
2024/02/10 04:45:27;;;;;;;11.27;10.37;;;10.40;1.00;;;;;;4999578;28;20553;-78
2024/02/10 04:47:57;;;;;;;10.90;10.00;;;10.40;1.00;;;;;;4993896;28;20478;-81
2024/02/10 04:50:28;;;;;;;11.00;10.10;;;10.40;98.40;;;;;;4997823;28;20532;-81
2024/02/10 04:52:56;;;;;;;12.20;11.20;;;10.40;1.00;;;;;;4999670;28;20458;-78
2024/02/10 04:55:25;;;;;;;10.93;10.03;;;10.50;1.00;;;;;;4996377;28;20469;-79
2024/02/10 04:57:55;;;;;;;10.97;10.17;;;10.50;1.00;;;;;;4998475;28;20477;-81
2024/02/10 05:00:23;;;;;;;11.87;10.83;;;10.40;1.00;;;;;;4996263;28;20469;-79
2024/02/10 05:02:54;;;;;;;11.23;10.43;;;10.40;1.00;;;;;;4994123;28;20464;-80
2024/02/10 05:05:23;;;;;;;11.57;10.73;;;10.50;1.00;;;;;;4995645;28;20969;-82
2024/02/10 05:07:53;;;;;;;12.20;11.20;;;10.50;99.90;;;;;;4992347;28;20467;-81
2024/02/10 05:10:22;;;;;;;11.37;10.47;;;10.40;99.90;;;;;;4997491;28;20507;-81
2024/02/10 05:12:52;;;;;;;10.90;10.00;;;10.40;99.90;;;;;;4995383;28;20465;-78
2024/02/10 05:15:23;;;;;;;10.97;10.10;;;10.30;99.90;;;;;;4999385;28;20506;-79
2024/02/10 05:17:52;;;;;;;11.50;10.50;;;10.30;1.00;;;;;;4996059;28;20486;-81
2024/02/10 05:20:23;;;;;;;10.83;9.93;;;10.40;1.00;;;;;;5000261;28;20458;-80
2024/02/10 05:22:52;;;;;;;10.93;9.83;;;10.40;1.00;;;;;;5002381;28;20963;-80
2024/02/10 05:25:22;;;;;;;11.33;10.43;;;10.40;99.90;;;;;;4997661;28;20987;-80
2024/02/10 05:27:51;;;;;;;10.37;9.67;;;10.30;99.90;;;;;;4984266;28;20482;-79
2024/02/10 05:30:23;;;;;;;11.00;10.10;;;10.30;1.00;;;;;;5001244;28;20465;-81
2024/02/10 05:32:53;;;;;;;10.87;10.07;;;10.30;96.30;;;;;;5004318;28;20454;-80
2024/02/10 05:35:24;;;;;;;11.93;10.93;;;10.30;99.90;;;;;;5001012;28;20442;-79
2024/02/10 05:37:54;;;;;;;11.57;10.47;;;10.30;99.90;;;;;;5004889;28;20487;-80
2024/02/10 05:40:23;;;;;;;11.67;10.67;;;10.40;99.90;;;;;;5005505;28;20448;-79
2024/02/10 05:42:52;;;;;;;11.23;10.40;;;10.30;99.90;;;;;;5003727;28;20476;-80
2024/02/10 05:45:21;;;;;;;11.10;10.00;;;10.20;1.00;;;;;;4999403;28;20500;-78
2024/02/10 05:47:50;;;;;;;11.63;10.63;;;10.20;99.90;;;;;;4997160;28;20481;-79
2024/02/10 05:50:22;;;;;;;11.53;10.43;;;10.20;1.00;;;;;;4997576;28;20563;-79
2024/02/10 05:52:57;;;;;;;11.57;10.57;;;10.20;99.90;;;;;;5001575;28;20462;-84
2024/02/10 05:55:27;;;;;;;10.73;9.90;;;10.20;1.00;;;;;;4995590;28;20457;-79
2024/02/10 05:57:58;;;;;;;12.10;10.90;;;10.20;1.00;;;;;;4999167;28;20813;-80
2024/02/10 06:00:27;;;;;;;11.17;10.27;;;10.20;72.70;;;;;;4998693;28;20446;-82
2024/02/10 06:02:55;;;;;;;10.67;9.83;;;10.10;99.90;;;;;;4998689;28;20491;-80
2024/02/10 06:05:24;;;;;;;9.97;9.20;;;10.20;99.90;;;;;;5001351;28;21116;-80
2024/02/10 06:08:00;;;;;;;11.07;10.10;;;10.20;1.00;;;;;;5000062;28;20482;-79
2024/02/10 06:10:29;;;;;;;11.50;10.50;;;10.10;25.70;;;;;;4998692;28;20513;-82
2024/02/10 06:12:58;;;;;;;11.33;10.43;;;10.10;1.00;;;;;;4996531;28;20993;-78
2024/02/10 06:15:26;;;;;;;10.47;9.67;;;10.00;1.00;;;;;;5001984;28;20457;-79
2024/02/10 06:17:56;;;;;;;11.27;10.47;;;10.10;99.90;;;;;;5006948;28;21058;-80
2024/02/10 06:20:25;;;;;;;11.77;10.67;;;10.10;1.00;;;;;;5007963;28;20514;-78
2024/02/10 06:22:56;;;;;;;11.87;10.87;;;10.10;1.00;;;;;;5008046;28;20461;-81
2024/02/10 06:25:26;;;;;;;12.13;11.13;;;10.10;99.90;;;;;;5003629;28;21106;-83
2024/02/10 06:27:57;;;;;;;11.17;10.27;;;10.10;1.00;;;;;;5005299;28;20829;-79
2024/02/10 06:30:30;;;;;;;10.77;10.07;;;10.10;1.00;;;;;;5004450;28;20546;-79
2024/02/10 06:32:58;;;;;;;10.07;9.30;;;10.10;1.00;;;;;;5005324;28;20438;-81
2024/02/10 06:35:27;;;;;;;12.00;11.00;;;10.10;99.90;;;;;;5000834;28;20460;-79
2024/02/10 06:37:55;;;;;;;10.90;10.10;;;10.00;99.90;;;;;;4999111;28;20248;-78
2024/02/10 06:40:25;;;;;;;12.20;11.10;;;10.00;1.00;;;;;;4991201;28;20486;-77
2024/02/10 06:42:53;;;;;;;10.93;10.13;;;10.00;99.90;;;;;;4995914;28;20466;-77
2024/02/10 06:45:24;;;;;;;11.27;10.13;;;10.00;1.00;;;;;;4997527;28;20453;-77
2024/02/10 06:47:53;;;;;;;10.83;9.93;;;10.00;1.00;;;;;;4994160;28;20486;-78
2024/02/10 06:50:26;;;;;;;10.82;9.98;;;10.00;99.90;;;;;;4993505;28;20437;-79
2024/02/10 06:52:59;;;;;;;11.00;9.90;;;10.00;1.00;;;;;;4999836;28;20230;-76
2024/02/10 06:55:29;;;;;;;11.97;10.97;;;9.90;1.00;;;;;;5002866;28;20465;-80
2024/02/10 06:57:58;;;;;;;11.03;10.03;;;9.90;1.00;;;;;;5003408;28;20459;-79
2024/02/10 07:00:27;;;;;;;11.53;10.43;;;10.00;74.70;;;;;;5000439;28;20990;-79
2024/02/10 07:02:56;;;;;;;10.10;9.23;;;10.00;1.00;;;;;;5003159;28;20472;-83
2024/02/10 07:05:26;;;;;;;11.30;10.30;;;10.00;99.90;;;;;;5002021;28;20512;-80
2024/02/10 07:07:55;;;;;;;12.03;11.23;;;10.00;1.00;;;;;;5004555;28;20478;-85
2024/02/10 07:10:24;;;;;;;10.70;9.83;;;10.00;99.90;;;;;;5002722;28;20459;-81
2024/02/10 07:12:55;;;;;;;11.07;10.20;;;10.00;99.90;;;;;;5005194;28;20480;-79
2024/02/10 07:15:29;;;;;;;10.70;9.90;;;10.00;1.00;;;;;;5000190;28;20471;-75
2024/02/10 07:18:06;;;;;;;10.50;9.60;;;10.00;99.90;;;;;;5001173;28;20814;-78
2024/02/10 07:20:35;;;;;;;10.77;9.83;;;10.00;1.00;;;;;;5002670;28;21534;-76
2024/02/10 07:23:04;;;;;;;10.00;9.00;;;10.00;1.00;;;;;;5001451;28;21059;-77
2024/02/10 07:25:35;;;;;;;12.30;11.30;;;10.00;99.90;;;;;;5000815;28;20512;-79
2024/02/10 07:28:07;;;;;;;12.17;11.10;;;10.10;99.90;;;;;;4997451;28;20449;-79
2024/02/10 07:30:35;;;;;;;11.33;10.37;;;10.10;99.90;;;;;;5001873;28;20454;-80
2024/02/10 07:33:08;;;;;;;11.83;10.27;;;10.10;98.20;;;;;;4987903;28;20563;-80
2024/02/10 07:35:39;;;;;;;11.30;10.50;;;10.10;99.90;;;;;;4998742;28;20441;-78
2024/02/10 07:38:09;;;;;;;11.40;10.50;;;10.10;99.90;;;;;;5001486;28;20956;-79
2024/02/10 07:40:38;;;;;;;12.70;11.50;;;10.20;99.90;;;;;;5002468;28;21019;-82
2024/02/10 07:43:13;;;;;;;13.27;12.00;;;10.20;1.00;;;;;;4999603;28;20516;-79
2024/02/10 07:45:41;;;;;;;13.20;11.63;;;10.20;99.90;;;;;;4998096;28;20457;-83
2024/02/10 07:48:09;;;;;;;12.03;10.87;;;10.10;99.90;;;;;;4999723;28;20516;-79
2024/02/10 07:50:41;;;;;;;13.30;12.00;;;10.20;1.00;;;;;;5000769;28;20548;-78
2024/02/10 07:53:13;;;;;;;13.67;10.47;;;10.20;99.90;;;;;;4992976;28;20456;-80
2024/02/10 07:55:46;;;;;;;12.10;10.90;;;10.20;99.90;;;;;;4997555;28;20544;-80
2024/02/10 07:58:17;;;;;;;12.47;11.37;;;10.20;1.00;;;;;;4996526;28;20451;-79
2024/02/10 08:00:46;;;;;;;13.43;12.23;;;10.20;99.90;;;;;;4996952;28;20482;-79
2024/02/10 08:03:15;;;;;;;12.07;11.03;;;10.20;1.00;;;;;;4997499;28;20524;-79
2024/02/10 08:05:43;;;;;;;12.67;11.57;;;10.30;99.90;;;;;;4996370;28;20968;-81
2024/02/10 08:08:11;;;;;;;13.37;12.17;;;10.30;1.00;;;;;;4998068;28;20450;-79
2024/02/10 08:10:40;;;;;;;14.00;12.60;;;10.30;1.00;;;;;;4999856;28;20473;-81
2024/02/10 08:13:08;;;;;;;13.13;11.77;;;10.40;1.00;;;;;;4999903;28;20458;-78
2024/02/10 08:15:39;;;;;;;15.27;13.33;;;10.40;1.00;;;;;;5002114;28;20980;-79
2024/02/10 08:18:08;;;;;;;13.73;12.47;;;10.40;1.00;;;;;;5000165;28;20531;-81
2024/02/10 08:20:40;;;;;;;12.53;11.23;;;10.40;30.00;;;;;;4999387;28;20516;-79
2024/02/10 08:23:11;;;;;;;13.27;12.07;;;10.40;99.90;;;;;;4998786;28;20582;-80
2024/02/10 08:25:41;;;;;;;15.50;13.87;;;10.40;99.90;;;;;;4996819;28;20450;-78
2024/02/10 08:28:11;;;;;;;14.30;12.97;;;10.40;99.90;;;;;;4995541;28;20549;-84
2024/02/10 08:30:40;;;;;;;14.30;12.87;;;10.50;99.90;;;;;;4997900;28;20545;-80
2024/02/10 08:33:09;;;;;;;15.10;13.70;;;10.50;99.90;;;;;;4998274;28;20600;-81
2024/02/10 08:35:38;;;;;;;14.50;12.93;;;10.60;99.90;;;;;;4999632;28;20967;-83
2024/02/10 08:38:06;;;;;;;15.53;14.03;;;10.60;99.90;;;;;;4999238;28;20462;-84
2024/02/10 08:40:34;;;;;;;20.63;16.80;;;10.60;99.90;;;;;;4996833;28;20487;-80
2024/02/10 08:43:03;;;;;;;16.40;14.67;;;10.60;99.90;;;;;;4999162;28;20471;-79
2024/02/10 08:45:31;;;;;;;15.60;14.10;;;10.60;99.90;;;;;;4999994;28;20997;-79
2024/02/10 08:48:01;;;;;;;18.10;15.00;;;10.60;99.90;;;;;;5000395;28;20470;-78
2024/02/10 08:50:30;;;;;;;16.50;14.80;;;10.60;59.10;;;;;;5000827;28;20497;-77
2024/02/10 08:52:59;;;;;;;17.20;15.50;;;10.60;99.90;;;;;;4998185;28;20537;-79
2024/02/10 08:55:28;;;;;;;15.10;13.63;;;10.60;99.90;;;;;;4996996;28;20530;-78
2024/02/10 08:58:01;;;;;;;14.37;12.97;;;10.60;99.30;;;;;;5000570;28;20486;-78
2024/02/10 09:00:29;;;;;;;16.57;14.97;;;10.70;99.90;;;;;;5002261;28;20987;-81
2024/02/10 09:02:57;;;;;;;17.03;15.30;;;10.70;99.90;;;;;;5002843;28;20493;-80
2024/02/10 09:05:27;;;;;;;17.00;13.60;;;10.60;99.90;;;;;;4982139;28;20983;-79
2024/02/10 09:07:56;;;;;;;18.00;16.10;;;10.60;64.70;;;;;;5001186;28;21065;-78
2024/02/10 09:10:24;;;;;;;15.17;13.70;;;10.70;99.90;;;;;;4995970;28;20535;-81
2024/02/10 09:12:52;;;;;;;15.57;14.00;;;10.70;1.00;;;;;;4999039;28;20498;-84
2024/02/10 09:15:21;;;;;;;14.27;12.77;;;10.70;99.90;;;;;;5000210;28;20461;-79
2024/02/10 09:17:50;;;;;;;14.53;13.10;;;10.70;1.00;;;;;;4998582;28;20470;-80
2024/02/10 09:20:21;;;;;;;14.87;13.57;;;10.70;1.00;;;;;;4997566;28;20528;-82
2024/02/10 09:22:53;;;;;;;13.90;12.70;;;10.60;99.90;;;;;;4997718;28;20445;-78
2024/02/10 09:25:26;;;;;;;13.63;12.50;;;10.60;1.00;;;;;;4999002;28;20469;-79
2024/02/10 09:27:58;;;;;;;12.67;11.60;;;10.60;1.00;;;;;;4996896;28;20486;-78
2024/02/10 09:30:27;;;;;;;13.73;12.33;;;10.60;1.00;;;;;;4993734;28;20458;-79
2024/02/10 09:32:55;;;;;;;13.33;12.00;;;10.70;1.00;;;;;;4997035;28;22723;-79
2024/02/10 09:35:24;;;;;;;11.67;10.77;;;10.70;1.00;;;;;;4998234;28;20439;-79
2024/02/10 09:38:03;;;;;;;13.30;11.87;;;10.70;99.90;;;;;;4999251;28;20466;-78
2024/02/10 09:40:32;;;;;;;12.30;11.30;;;10.70;99.90;;;;;;4999067;28;20553;-79
2024/02/10 09:43:05;;;;;;;13.13;12.00;;;10.70;1.00;;;;;;4996848;28;20450;-81
2024/02/10 09:45:36;;;;;;;13.50;12.10;;;10.70;1.00;;;;;;4996602;28;20473;-78
2024/02/10 09:48:06;;;;;;;13.55;12.45;;;10.70;1.00;;;;;;4997317;28;20442;-80
2024/02/10 09:50:35;;;;;;;12.47;11.43;;;10.70;1.00;;;;;;5000392;28;20206;-80
2024/02/10 09:53:07;;;;;;;14.97;13.43;;;10.70;1.00;;;;;;5000628;28;20465;-78
2024/02/10 09:55:35;;;;;;;14.17;12.93;;;10.70;1.00;;;;;;5000023;28;20842;-79
2024/02/10 09:58:06;;;;;;;15.00;13.50;;;10.70;99.90;;;;;;4998084;28;20490;-78
2024/02/10 10:00:37;;;;;;;16.27;14.67;;;10.70;77.60;;;;;;4996936;28;20537;-80
2024/02/10 10:03:06;;;;;;;15.80;14.20;;;10.70;99.90;;;;;;4999108;28;20552;-79
2024/02/10 10:05:42;;;;;;;15.30;13.70;;;10.70;99.90;;;;;;4999878;28;20467;-79
2024/02/10 10:08:13;;;;;;;15.27;12.37;;;10.60;1.00;;;;;;5003840;28;20527;-80
2024/02/10 10:10:41;;;;;;;14.33;12.97;;;10.70;1.00;;;;;;5002848;28;20439;-78
2024/02/10 10:13:10;;;;;;;13.37;12.13;;;10.60;1.00;;;;;;5002296;28;21054;-81
2024/02/10 10:15:40;;;;;;;12.80;11.67;;;10.70;11.80;;;;;;4999610;28;20560;-80
2024/02/10 10:18:19;;;;;;;12.87;11.73;;;10.70;99.90;;;;;;5001401;28;20572;-80
2024/02/10 10:20:48;;;;;;;14.60;13.03;;;10.70;99.90;;;;;;4996600;28;21847;-79
2024/02/10 10:23:18;;;;;;;15.27;13.33;;;10.70;1.00;;;;;;5003169;28;20446;-80
2024/02/10 10:25:47;;;;;;;13.33;12.00;;;10.70;1.00;;;;;;4997292;28;20461;-78
2024/02/10 10:28:18;;;;;;;14.17;12.43;;;10.80;69.80;;;;;;4988074;28;21101;-80
2024/02/10 10:30:48;;;;;;;14.37;12.93;;;10.80;99.90;;;;;;4998738;28;20874;-79
2024/02/10 10:33:20;;;;;;;14.23;12.87;;;10.90;95.90;;;;;;4996133;28;20450;-81
2024/02/10 10:35:50;;;;;;;15.87;14.27;;;10.90;99.90;;;;;;4998542;28;20453;-82
2024/02/10 10:38:21;;;;;;;13.47;12.27;;;10.90;99.90;;;;;;4998332;28;21090;-80
2024/02/10 10:40:52;;;;;;;14.03;12.40;;;10.90;99.90;;;;;;5000605;28;20860;-82
2024/02/10 10:43:22;;;;;;;15.33;13.83;;;10.90;1.00;;;;;;4996407;28;20464;-79
2024/02/10 10:45:50;;;;;;;14.97;13.57;;;10.90;1.00;;;;;;4998712;28;20462;-81
2024/02/10 10:48:19;;;;;;;16.27;14.68;;;11.00;1.00;;;;;;4998005;28;20443;-78
2024/02/10 10:50:56;;;;;;;15.20;13.87;;;11.00;66.10;;;;;;4998918;28;20203;-81
2024/02/10 10:53:28;;;;;;;14.80;13.30;;;11.00;6.30;;;;;;5001818;28;20453;-79
2024/02/10 10:56:00;;;;;;;13.20;12.00;;;11.00;25.70;;;;;;4999468;28;20458;-80
2024/02/10 10:58:33;;;;;;;13.00;11.63;;;11.00;1.00;;;;;;5007845;28;20540;-81
2024/02/10 11:01:03;;;;;;;12.73;11.47;;;11.10;24.80;;;;;;5005602;28;20484;-80
2024/02/10 11:03:31;;;;;;;12.70;11.40;;;11.10;1.00;;;;;;5006992;28;20533;-81
2024/02/10 11:06:09;;;;;;;12.90;11.80;;;11.10;16.60;;;;;;5002486;28;20477;-80
2024/02/10 11:08:41;;;;;;;13.93;12.53;;;11.20;99.90;;;;;;5005682;28;20791;-80
2024/02/10 11:11:10;;;;;;;16.07;11.90;;;11.30;99.90;;;;;;5008218;28;20450;-84
2024/02/10 11:13:39;;;;;;;14.23;12.83;;;11.20;99.90;;;;;;5010668;28;20473;-80
2024/02/10 11:16:12;;;;;;;16.90;15.00;;;11.30;99.90;;;;;;5005797;28;20488;-80
2024/02/10 11:18:43;;;;;;;15.20;13.70;;;11.30;99.90;;;;;;5008678;28;20446;-82
2024/02/10 11:21:18;;;;;;;14.53;13.20;;;11.30;99.90;;;;;;5007277;28;20481;-84
2024/02/10 11:24:07;;;;;;;12.90;11.80;;;11.30;99.90;;;;;;5003613;28;20457;-83
2024/02/10 11:26:38;;;;;;;11.27;10.27;;;11.30;99.90;;;;;;5004607;28;20961;-84
2024/02/10 11:29:08;;;;;;;12.13;11.13;;;11.30;99.90;;;;;;5003164;28;20462;-81
2024/02/10 11:31:40;;;;;;;11.40;10.47;;;11.30;99.90;;;;;;5006961;28;20462;-82
2024/02/10 11:34:14;;;;;;;10.33;9.53;;;11.40;91.20;;;;;;5003502;28;20478;-82
2024/02/10 11:36:51;;;;;;;10.83;10.03;;;11.40;1.00;;;;;;4996698;28;20484;-80
2024/02/10 11:39:23;;;;;;;9.80;9.10;;;11.40;99.90;;;;;;5000328;28;20533;-81
2024/02/10 11:41:55;;;;;;;10.43;9.57;;;11.50;1.00;;;;;;4987693;28;20478;-80
2024/02/10 11:44:26;;;;;;;8.43;7.83;;;11.50;41.90;;;;;;5003973;28;20516;-81
2024/02/10 11:46:55;;;;;;;8.20;7.60;;;11.50;99.90;;;;;;5000492;28;21099;-81
2024/02/10 11:49:24;;;;;;;8.70;8.10;;;11.60;5.40;;;;;;5002254;28;20551;-80
2024/02/10 11:51:56;;;;;;;8.30;7.70;;;11.60;99.90;;;;;;4998466;28;20469;-82
2024/02/10 11:54:27;;;;;;;8.60;8.00;;;11.70;40.10;;;;;;5000254;28;20453;-82
2024/02/10 11:57:00;;;;;;;8.27;7.73;;;11.60;99.90;;;;;;4999703;28;20498;-83
2024/02/10 11:59:29;;;;;;;9.80;9.00;;;11.60;99.90;;;;;;4999465;28;20535;-82
2024/02/10 12:01:59;;;;;;;10.07;9.33;;;11.60;1.00;;;;;;4996341;28;20513;-79
2024/02/10 12:04:28;;;;;;;11.40;10.40;;;11.60;1.00;;;;;;5003051;28;20549;-81
2024/02/10 12:06:57;;;;;;;11.13;10.23;;;11.50;99.90;;;;;;5000438;28;20489;-82
2024/02/10 12:09:28;;;;;;;10.13;9.53;;;11.50;7.30;;;;;;5001420;28;20454;-84
2024/02/10 12:11:58;;;;;;;11.80;10.33;;;11.50;99.90;;;;;;4998779;28;20447;-81
2024/02/10 12:14:27;;;;;;;11.37;10.43;;;11.50;99.90;;;;;;5002738;28;20453;-81
2024/02/10 12:17:05;;;;;;;12.03;10.97;;;11.60;2.70;;;;;;5002701;28;20465;-80
2024/02/10 12:19:37;;;;;;;11.87;10.97;;;11.60;1.00;;;;;;5005436;28;20454;-79
2024/02/10 12:22:08;;;;;;;12.43;11.23;;;11.70;1.00;;;;;;4989208;28;20916;-82
2024/02/10 12:24:37;;;;;;;10.50;9.70;;;11.70;39.10;;;;;;5006461;28;20852;-81
2024/02/10 12:27:06;;;;;;;12.13;11.10;;;11.70;99.90;;;;;;5003251;28;20849;-81
2024/02/10 12:29:37;;;;;;;12.13;11.13;;;11.80;99.90;;;;;;5006699;28;20548;-82
2024/02/10 12:32:08;;;;;;;12.27;11.27;;;11.80;99.90;;;;;;4996555;28;20450;-81
2024/02/10 12:34:36;;;;;;;11.57;10.67;;;11.90;99.90;;;;;;4988925;28;21088;-80
2024/02/10 12:37:06;;;;;;;11.23;10.23;;;11.90;99.90;;;;;;5004389;28;21035;-81
2024/02/10 12:39:34;;;;;;;11.80;10.80;;;11.90;99.90;;;;;;5002700;28;20446;-82
2024/02/10 12:42:05;;;;;;;12.30;11.30;;;12.00;1.00;;;;;;5004351;28;20485;-84
2024/02/10 12:44:35;;;;;;;13.13;11.80;;;12.10;99.90;;;;;;4988999;28;20461;-81
2024/02/10 12:47:04;;;;;;;12.33;11.10;;;12.20;99.90;;;;;;5004181;28;20481;-82
2024/02/10 12:49:35;;;;;;;11.27;10.43;;;12.30;35.00;;;;;;5002902;28;20545;-79